sensor_id;sensor_type;location;lat;lon;timestamp;P1;durP1;ratioP1;P2;durP2;ratioP2
18364;SDS011;9309;52.126;11.616;2022-12-05T00:00:27;125.73;;;32.10;;
18364;SDS011;9309;52.126;11.616;2022-12-05T00:02:54;139.43;;;33.47;;
18364;SDS011;9309;52.126;11.616;2022-12-05T00:05:20;136.20;;;32.00;;
18364;SDS011;9309;52.126;11.616;2022-12-05T00:07:47;127.87;;;32.07;;
18364;SDS011;9309;52.126;11.616;2022-12-05T00:10:14;143.60;;;34.23;;
18364;SDS011;9309;52.126;11.616;2022-12-05T00:12:43;127.23;;;31.20;;
18364;SDS011;9309;52.126;11.616;2022-12-05T00:15:09;119.27;;;32.03;;
18364;SDS011;9309;52.126;11.616;2022-12-05T00:17:37;116.27;;;30.67;;
18364;SDS011;9309;52.126;11.616;2022-12-05T00:20:05;132.30;;;32.50;;
18364;SDS011;9309;52.126;11.616;2022-12-05T00:22:34;125.30;;;31.50;;
18364;SDS011;9309;52.126;11.616;2022-12-05T00:25:01;125.83;;;32.67;;
18364;SDS011;9309;52.126;11.616;2022-12-05T00:27:28;132.30;;;31.70;;
18364;SDS011;9309;52.126;11.616;2022-12-05T00:29:56;129.80;;;32.33;;
18364;SDS011;9309;52.126;11.616;2022-12-05T00:32:24;122.17;;;31.17;;
18364;SDS011;9309;52.126;11.616;2022-12-05T00:34:51;127.90;;;31.57;;
18364;SDS011;9309;52.126;11.616;2022-12-05T00:37:17;140.03;;;34.57;;
18364;SDS011;9309;52.126;11.616;2022-12-05T00:39:44;121.30;;;32.70;;
18364;SDS011;9309;52.126;11.616;2022-12-05T00:42:11;118.03;;;30.60;;
18364;SDS011;9309;52.126;11.616;2022-12-05T00:44:39;102.27;;;30.07;;
18364;SDS011;9309;52.126;11.616;2022-12-05T00:47:07;110.37;;;30.33;;
18364;SDS011;9309;52.126;11.616;2022-12-05T00:49:34;107.60;;;28.70;;
18364;SDS011;9309;52.126;11.616;2022-12-05T00:52:01;107.03;;;29.23;;
18364;SDS011;9309;52.126;11.616;2022-12-05T00:54:28;109.43;;;29.03;;
18364;SDS011;9309;52.126;11.616;2022-12-05T00:56:54;110.60;;;29.37;;
18364;SDS011;9309;52.126;11.616;2022-12-05T00:59:21;106.07;;;28.73;;
18364;SDS011;9309;52.126;11.616;2022-12-05T01:01:49;105.30;;;27.83;;
18364;SDS011;9309;52.126;11.616;2022-12-05T01:04:18;99.80;;;28.17;;
18364;SDS011;9309;52.126;11.616;2022-12-05T01:06:46;95.83;;;27.60;;
18364;SDS011;9309;52.126;11.616;2022-12-05T01:09:15;92.73;;;27.03;;
18364;SDS011;9309;52.126;11.616;2022-12-05T01:11:44;96.30;;;29.10;;
18364;SDS011;9309;52.126;11.616;2022-12-05T01:14:12;101.30;;;27.83;;
18364;SDS011;9309;52.126;11.616;2022-12-05T01:16:40;106.27;;;28.33;;
18364;SDS011;9309;52.126;11.616;2022-12-05T01:19:10;124.57;;;29.90;;
18364;SDS011;9309;52.126;11.616;2022-12-05T01:21:40;106.47;;;28.50;;
18364;SDS011;9309;52.126;11.616;2022-12-05T01:24:07;107.70;;;29.30;;
18364;SDS011;9309;52.126;11.616;2022-12-05T01:26:35;105.53;;;29.10;;
18364;SDS011;9309;52.126;11.616;2022-12-05T01:29:02;93.90;;;27.40;;
18364;SDS011;9309;52.126;11.616;2022-12-05T01:31:30;104.60;;;28.03;;
18364;SDS011;9309;52.126;11.616;2022-12-05T01:33:59;116.17;;;29.87;;
18364;SDS011;9309;52.126;11.616;2022-12-05T01:36:27;97.73;;;29.13;;
18364;SDS011;9309;52.126;11.616;2022-12-05T01:38:56;130.83;;;29.43;;
18364;SDS011;9309;52.126;11.616;2022-12-05T01:41:26;118.13;;;29.30;;
18364;SDS011;9309;52.126;11.616;2022-12-05T01:43:55;109.03;;;30.40;;
18364;SDS011;9309;52.126;11.616;2022-12-05T01:46:25;134.40;;;30.27;;
18364;SDS011;9309;52.126;11.616;2022-12-05T01:48:54;117.03;;;30.83;;
18364;SDS011;9309;52.126;11.616;2022-12-05T01:51:25;108.63;;;29.40;;
18364;SDS011;9309;52.126;11.616;2022-12-05T01:53:52;108.87;;;28.50;;
18364;SDS011;9309;52.126;11.616;2022-12-05T01:56:21;106.53;;;29.17;;
18364;SDS011;9309;52.126;11.616;2022-12-05T01:58:47;117.10;;;30.00;;
18364;SDS011;9309;52.126;11.616;2022-12-05T02:01:15;110.67;;;30.30;;
18364;SDS011;9309;52.126;11.616;2022-12-05T02:03:43;106.07;;;28.70;;
18364;SDS011;9309;52.126;11.616;2022-12-05T02:06:16;109.13;;;29.10;;
18364;SDS011;9309;52.126;11.616;2022-12-05T02:08:43;108.10;;;27.73;;
18364;SDS011;9309;52.126;11.616;2022-12-05T02:11:12;110.33;;;28.50;;
18364;SDS011;9309;52.126;11.616;2022-12-05T02:13:46;107.77;;;30.03;;
18364;SDS011;9309;52.126;11.616;2022-12-05T02:16:34;108.03;;;28.53;;
18364;SDS011;9309;52.126;11.616;2022-12-05T02:19:16;104.73;;;28.57;;
18364;SDS011;9309;52.126;11.616;2022-12-05T02:22:06;94.40;;;29.17;;
18364;SDS011;9309;52.126;11.616;2022-12-05T02:24:53;95.10;;;26.83;;
18364;SDS011;9309;52.126;11.616;2022-12-05T02:27:36;91.87;;;26.40;;
18364;SDS011;9309;52.126;11.616;2022-12-05T02:34:03;92.57;;;26.40;;
18364;SDS011;9309;52.126;11.616;2022-12-05T02:36:37;87.63;;;27.27;;
18364;SDS011;9309;52.126;11.616;2022-12-05T02:39:10;92.97;;;26.70;;
18364;SDS011;9309;52.126;11.616;2022-12-05T02:41:45;87.23;;;25.80;;
18364;SDS011;9309;52.126;11.616;2022-12-05T02:44:16;92.43;;;27.63;;
18364;SDS011;9309;52.126;11.616;2022-12-05T02:46:47;115.77;;;26.80;;
18364;SDS011;9309;52.126;11.616;2022-12-05T02:49:17;82.63;;;24.60;;
18364;SDS011;9309;52.126;11.616;2022-12-05T02:51:47;87.33;;;26.47;;
18364;SDS011;9309;52.126;11.616;2022-12-05T02:54:18;90.63;;;26.07;;
18364;SDS011;9309;52.126;11.616;2022-12-05T02:56:48;85.83;;;26.20;;
18364;SDS011;9309;52.126;11.616;2022-12-05T02:59:17;75.50;;;24.20;;
18364;SDS011;9309;52.126;11.616;2022-12-05T03:01:44;93.97;;;26.53;;
18364;SDS011;9309;52.126;11.616;2022-12-05T03:04:15;76.03;;;22.50;;
18364;SDS011;9309;52.126;11.616;2022-12-05T03:06:44;65.13;;;23.77;;
18364;SDS011;9309;52.126;11.616;2022-12-05T03:09:18;80.87;;;24.97;;
18364;SDS011;9309;52.126;11.616;2022-12-05T03:11:48;77.53;;;23.67;;
18364;SDS011;9309;52.126;11.616;2022-12-05T03:14:18;69.27;;;22.97;;
18364;SDS011;9309;52.126;11.616;2022-12-05T03:16:51;65.77;;;22.00;;
18364;SDS011;9309;52.126;11.616;2022-12-05T03:19:23;66.03;;;22.60;;
18364;SDS011;9309;52.126;11.616;2022-12-05T03:21:54;63.87;;;22.13;;
18364;SDS011;9309;52.126;11.616;2022-12-05T03:24:25;63.50;;;21.27;;
18364;SDS011;9309;52.126;11.616;2022-12-05T03:26:54;66.77;;;21.50;;
18364;SDS011;9309;52.126;11.616;2022-12-05T03:29:30;62.30;;;20.67;;
18364;SDS011;9309;52.126;11.616;2022-12-05T03:32:04;58.87;;;20.47;;
18364;SDS011;9309;52.126;11.616;2022-12-05T03:34:42;68.07;;;21.40;;
18364;SDS011;9309;52.126;11.616;2022-12-05T03:37:17;54.43;;;20.47;;
18364;SDS011;9309;52.126;11.616;2022-12-05T03:39:47;58.67;;;20.33;;
18364;SDS011;9309;52.126;11.616;2022-12-05T03:42:19;54.73;;;19.57;;
18364;SDS011;9309;52.126;11.616;2022-12-05T03:44:53;55.23;;;19.70;;
18364;SDS011;9309;52.126;11.616;2022-12-05T03:47:26;55.63;;;19.33;;
18364;SDS011;9309;52.126;11.616;2022-12-05T03:49:59;57.40;;;18.90;;
18364;SDS011;9309;52.126;11.616;2022-12-05T03:52:35;53.90;;;19.40;;
18364;SDS011;9309;52.126;11.616;2022-12-05T03:55:07;46.27;;;19.43;;
18364;SDS011;9309;52.126;11.616;2022-12-05T03:57:39;57.47;;;18.67;;
18364;SDS011;9309;52.126;11.616;2022-12-05T04:00:10;54.60;;;19.53;;
18364;SDS011;9309;52.126;11.616;2022-12-05T04:02:41;53.83;;;20.07;;
18364;SDS011;9309;52.126;11.616;2022-12-05T04:05:15;53.63;;;19.60;;
18364;SDS011;9309;52.126;11.616;2022-12-05T04:07:45;52.33;;;19.20;;
18364;SDS011;9309;52.126;11.616;2022-12-05T04:13:00;47.90;;;18.73;;
18364;SDS011;9309;52.126;11.616;2022-12-05T04:15:41;49.07;;;18.63;;
18364;SDS011;9309;52.126;11.616;2022-12-05T04:18:31;49.73;;;17.80;;
18364;SDS011;9309;52.126;11.616;2022-12-05T04:21:03;50.57;;;19.03;;
18364;SDS011;9309;52.126;11.616;2022-12-05T04:23:49;54.80;;;19.47;;
18364;SDS011;9309;52.126;11.616;2022-12-05T04:26:39;60.37;;;19.33;;
18364;SDS011;9309;52.126;11.616;2022-12-05T04:29:11;50.47;;;17.60;;
18364;SDS011;9309;52.126;11.616;2022-12-05T04:31:45;48.23;;;18.40;;
18364;SDS011;9309;52.126;11.616;2022-12-05T04:34:16;47.60;;;18.23;;
18364;SDS011;9309;52.126;11.616;2022-12-05T04:36:49;56.43;;;19.03;;
18364;SDS011;9309;52.126;11.616;2022-12-05T04:39:22;46.20;;;18.30;;
18364;SDS011;9309;52.126;11.616;2022-12-05T04:41:52;52.67;;;18.63;;
18364;SDS011;9309;52.126;11.616;2022-12-05T04:44:24;50.97;;;18.60;;
18364;SDS011;9309;52.126;11.616;2022-12-05T04:46:54;44.93;;;17.33;;
18364;SDS011;9309;52.126;11.616;2022-12-05T04:49:25;43.30;;;17.10;;
18364;SDS011;9309;52.126;11.616;2022-12-05T04:51:56;50.20;;;18.23;;
18364;SDS011;9309;52.126;11.616;2022-12-05T04:54:28;50.03;;;18.83;;
18364;SDS011;9309;52.126;11.616;2022-12-05T04:56:58;45.17;;;17.27;;
18364;SDS011;9309;52.126;11.616;2022-12-05T04:59:31;47.27;;;18.53;;
18364;SDS011;9309;52.126;11.616;2022-12-05T05:01:59;41.47;;;17.00;;
18364;SDS011;9309;52.126;11.616;2022-12-05T05:04:33;43.47;;;18.30;;
18364;SDS011;9309;52.126;11.616;2022-12-05T05:07:05;41.90;;;17.97;;
18364;SDS011;9309;52.126;11.616;2022-12-05T05:09:33;45.27;;;16.93;;
18364;SDS011;9309;52.126;11.616;2022-12-05T05:12:00;40.83;;;18.23;;
18364;SDS011;9309;52.126;11.616;2022-12-05T05:14:27;40.83;;;17.63;;
18364;SDS011;9309;52.126;11.616;2022-12-05T05:16:54;46.40;;;18.57;;
18364;SDS011;9309;52.126;11.616;2022-12-05T05:19:21;41.00;;;17.27;;
18364;SDS011;9309;52.126;11.616;2022-12-05T05:21:49;35.97;;;15.90;;
18364;SDS011;9309;52.126;11.616;2022-12-05T05:24:18;37.77;;;15.70;;
18364;SDS011;9309;52.126;11.616;2022-12-05T05:26:47;44.20;;;17.67;;
18364;SDS011;9309;52.126;11.616;2022-12-05T05:29:15;35.57;;;16.27;;
18364;SDS011;9309;52.126;11.616;2022-12-05T05:31:42;38.20;;;17.27;;
18364;SDS011;9309;52.126;11.616;2022-12-05T05:34:10;43.40;;;16.00;;
18364;SDS011;9309;52.126;11.616;2022-12-05T05:36:40;42.73;;;17.20;;
18364;SDS011;9309;52.126;11.616;2022-12-05T05:39:09;37.17;;;15.93;;
18364;SDS011;9309;52.126;11.616;2022-12-05T05:41:39;38.97;;;15.93;;
18364;SDS011;9309;52.126;11.616;2022-12-05T05:44:06;35.20;;;15.90;;
18364;SDS011;9309;52.126;11.616;2022-12-05T05:46:33;39.63;;;16.30;;
18364;SDS011;9309;52.126;11.616;2022-12-05T05:49:00;35.27;;;15.97;;
18364;SDS011;9309;52.126;11.616;2022-12-05T05:51:28;39.87;;;15.90;;
18364;SDS011;9309;52.126;11.616;2022-12-05T05:53:55;40.07;;;16.80;;
18364;SDS011;9309;52.126;11.616;2022-12-05T05:56:23;41.63;;;16.00;;
18364;SDS011;9309;52.126;11.616;2022-12-05T05:58:55;32.23;;;15.00;;
18364;SDS011;9309;52.126;11.616;2022-12-05T06:01:23;34.73;;;15.20;;
18364;SDS011;9309;52.126;11.616;2022-12-05T06:03:50;40.40;;;15.30;;
18364;SDS011;9309;52.126;11.616;2022-12-05T06:06:17;41.07;;;16.50;;
18364;SDS011;9309;52.126;11.616;2022-12-05T06:08:45;33.57;;;15.47;;
18364;SDS011;9309;52.126;11.616;2022-12-05T06:11:14;33.17;;;15.10;;
18364;SDS011;9309;52.126;11.616;2022-12-05T06:13:42;35.17;;;14.80;;
18364;SDS011;9309;52.126;11.616;2022-12-05T06:16:11;39.50;;;15.90;;
18364;SDS011;9309;52.126;11.616;2022-12-05T06:18:39;37.03;;;15.80;;
18364;SDS011;9309;52.126;11.616;2022-12-05T06:21:06;35.03;;;15.43;;
18364;SDS011;9309;52.126;11.616;2022-12-05T06:23:33;36.70;;;16.03;;
18364;SDS011;9309;52.126;11.616;2022-12-05T06:26:01;33.07;;;15.70;;
18364;SDS011;9309;52.126;11.616;2022-12-05T06:28:29;30.53;;;14.83;;
18364;SDS011;9309;52.126;11.616;2022-12-05T06:30:56;45.63;;;17.40;;
18364;SDS011;9309;52.126;11.616;2022-12-05T06:33:24;35.87;;;16.63;;
18364;SDS011;9309;52.126;11.616;2022-12-05T06:36:00;38.43;;;15.83;;
18364;SDS011;9309;52.126;11.616;2022-12-05T06:38:28;34.67;;;15.53;;
18364;SDS011;9309;52.126;11.616;2022-12-05T06:40:55;37.13;;;15.43;;
18364;SDS011;9309;52.126;11.616;2022-12-05T06:43:22;35.27;;;15.37;;
18364;SDS011;9309;52.126;11.616;2022-12-05T06:45:49;36.97;;;14.57;;
18364;SDS011;9309;52.126;11.616;2022-12-05T06:48:16;40.03;;;16.40;;
18364;SDS011;9309;52.126;11.616;2022-12-05T06:50:48;39.27;;;15.73;;
18364;SDS011;9309;52.126;11.616;2022-12-05T06:53:16;42.70;;;15.63;;
18364;SDS011;9309;52.126;11.616;2022-12-05T06:55:43;38.33;;;16.10;;
18364;SDS011;9309;52.126;11.616;2022-12-05T06:58:11;40.70;;;16.97;;
18364;SDS011;9309;52.126;11.616;2022-12-05T07:00:38;42.50;;;17.17;;
18364;SDS011;9309;52.126;11.616;2022-12-05T07:03:22;50.20;;;17.70;;
18364;SDS011;9309;52.126;11.616;2022-12-05T07:05:50;48.00;;;18.47;;
18364;SDS011;9309;52.126;11.616;2022-12-05T07:08:17;42.43;;;17.60;;
18364;SDS011;9309;52.126;11.616;2022-12-05T07:10:49;46.83;;;17.03;;
18364;SDS011;9309;52.126;11.616;2022-12-05T07:13:17;42.23;;;17.60;;
18364;SDS011;9309;52.126;11.616;2022-12-05T07:15:45;40.23;;;17.83;;
18364;SDS011;9309;52.126;11.616;2022-12-05T07:18:13;37.67;;;16.63;;
18364;SDS011;9309;52.126;11.616;2022-12-05T07:20:40;42.37;;;17.60;;
18364;SDS011;9309;52.126;11.616;2022-12-05T07:23:09;32.00;;;16.20;;
18364;SDS011;9309;52.126;11.616;2022-12-05T07:25:37;39.80;;;16.60;;
18364;SDS011;9309;52.126;11.616;2022-12-05T07:28:05;37.57;;;16.33;;
18364;SDS011;9309;52.126;11.616;2022-12-05T07:30:32;36.67;;;17.17;;
18364;SDS011;9309;52.126;11.616;2022-12-05T07:32:59;33.93;;;15.97;;
18364;SDS011;9309;52.126;11.616;2022-12-05T07:35:26;43.53;;;16.63;;
18364;SDS011;9309;52.126;11.616;2022-12-05T07:37:53;36.60;;;16.73;;
18364;SDS011;9309;52.126;11.616;2022-12-05T07:40:21;37.57;;;15.60;;
18364;SDS011;9309;52.126;11.616;2022-12-05T07:42:48;42.97;;;17.30;;
18364;SDS011;9309;52.126;11.616;2022-12-05T07:45:17;37.07;;;15.60;;
18364;SDS011;9309;52.126;11.616;2022-12-05T07:47:44;36.53;;;16.40;;
18364;SDS011;9309;52.126;11.616;2022-12-05T07:50:11;37.87;;;16.00;;
18364;SDS011;9309;52.126;11.616;2022-12-05T07:52:39;37.67;;;15.73;;
18364;SDS011;9309;52.126;11.616;2022-12-05T07:55:06;33.53;;;15.73;;
18364;SDS011;9309;52.126;11.616;2022-12-05T07:57:35;36.67;;;15.47;;
18364;SDS011;9309;52.126;11.616;2022-12-05T08:00:02;38.63;;;15.87;;
18364;SDS011;9309;52.126;11.616;2022-12-05T08:02:37;37.27;;;16.27;;
18364;SDS011;9309;52.126;11.616;2022-12-05T08:05:04;35.67;;;15.30;;
18364;SDS011;9309;52.126;11.616;2022-12-05T08:07:32;35.07;;;15.03;;
18364;SDS011;9309;52.126;11.616;2022-12-05T08:09:59;35.97;;;15.67;;
18364;SDS011;9309;52.126;11.616;2022-12-05T08:12:26;40.80;;;16.57;;
18364;SDS011;9309;52.126;11.616;2022-12-05T08:14:54;38.23;;;16.40;;
18364;SDS011;9309;52.126;11.616;2022-12-05T08:17:21;37.67;;;16.10;;
18364;SDS011;9309;52.126;11.616;2022-12-05T08:19:47;33.93;;;15.00;;
18364;SDS011;9309;52.126;11.616;2022-12-05T08:22:14;36.13;;;16.27;;
18364;SDS011;9309;52.126;11.616;2022-12-05T08:24:41;39.63;;;16.83;;
18364;SDS011;9309;52.126;11.616;2022-12-05T08:27:09;39.33;;;17.47;;
18364;SDS011;9309;52.126;11.616;2022-12-05T08:29:36;40.27;;;16.73;;
18364;SDS011;9309;52.126;11.616;2022-12-05T08:32:04;39.67;;;16.83;;
18364;SDS011;9309;52.126;11.616;2022-12-05T08:34:31;39.17;;;16.57;;
18364;SDS011;9309;52.126;11.616;2022-12-05T08:36:58;33.93;;;14.17;;
18364;SDS011;9309;52.126;11.616;2022-12-05T08:39:24;36.23;;;15.53;;
18364;SDS011;9309;52.126;11.616;2022-12-05T08:41:51;40.00;;;15.70;;
18364;SDS011;9309;52.126;11.616;2022-12-05T08:44:18;37.40;;;15.73;;
18364;SDS011;9309;52.126;11.616;2022-12-05T08:46:46;35.47;;;16.10;;
18364;SDS011;9309;52.126;11.616;2022-12-05T08:49:16;35.67;;;16.73;;
18364;SDS011;9309;52.126;11.616;2022-12-05T08:51:43;35.13;;;16.17;;
18364;SDS011;9309;52.126;11.616;2022-12-05T08:54:10;32.90;;;16.07;;
18364;SDS011;9309;52.126;11.616;2022-12-05T08:56:38;37.43;;;16.17;;
18364;SDS011;9309;52.126;11.616;2022-12-05T08:59:05;37.37;;;15.00;;
18364;SDS011;9309;52.126;11.616;2022-12-05T09:01:32;39.80;;;16.57;;
18364;SDS011;9309;52.126;11.616;2022-12-05T09:04:02;40.87;;;15.87;;
18364;SDS011;9309;52.126;11.616;2022-12-05T09:06:32;35.83;;;15.50;;
18364;SDS011;9309;52.126;11.616;2022-12-05T09:09:00;33.87;;;14.73;;
18364;SDS011;9309;52.126;11.616;2022-12-05T09:11:30;39.17;;;16.00;;
18364;SDS011;9309;52.126;11.616;2022-12-05T09:13:59;37.93;;;15.17;;
18364;SDS011;9309;52.126;11.616;2022-12-05T09:16:27;41.27;;;16.17;;
18364;SDS011;9309;52.126;11.616;2022-12-05T09:18:56;41.43;;;16.63;;
18364;SDS011;9309;52.126;11.616;2022-12-05T09:21:24;40.97;;;15.83;;
18364;SDS011;9309;52.126;11.616;2022-12-05T09:23:54;40.70;;;17.23;;
18364;SDS011;9309;52.126;11.616;2022-12-05T09:26:23;48.10;;;18.50;;
18364;SDS011;9309;52.126;11.616;2022-12-05T09:28:51;46.53;;;18.47;;
18364;SDS011;9309;52.126;11.616;2022-12-05T09:31:19;42.17;;;18.10;;
18364;SDS011;9309;52.126;11.616;2022-12-05T09:33:48;47.77;;;19.03;;
18364;SDS011;9309;52.126;11.616;2022-12-05T09:36:16;43.87;;;19.63;;
18364;SDS011;9309;52.126;11.616;2022-12-05T09:38:45;48.27;;;19.57;;
18364;SDS011;9309;52.126;11.616;2022-12-05T09:41:17;53.73;;;20.00;;
18364;SDS011;9309;52.126;11.616;2022-12-05T09:44:11;53.70;;;18.93;;
18364;SDS011;9309;52.126;11.616;2022-12-05T09:46:44;51.53;;;20.23;;
18364;SDS011;9309;52.126;11.616;2022-12-05T09:49:18;47.67;;;18.77;;
18364;SDS011;9309;52.126;11.616;2022-12-05T09:51:46;46.83;;;19.43;;
18364;SDS011;9309;52.126;11.616;2022-12-05T09:54:15;45.97;;;18.73;;
18364;SDS011;9309;52.126;11.616;2022-12-05T09:56:44;48.30;;;18.87;;
18364;SDS011;9309;52.126;11.616;2022-12-05T09:59:14;52.23;;;18.87;;
18364;SDS011;9309;52.126;11.616;2022-12-05T10:01:45;51.47;;;19.13;;
18364;SDS011;9309;52.126;11.616;2022-12-05T10:07:18;47.30;;;18.10;;
18364;SDS011;9309;52.126;11.616;2022-12-05T10:09:56;52.53;;;18.97;;
18364;SDS011;9309;52.126;11.616;2022-12-05T10:12:40;55.47;;;20.07;;
18364;SDS011;9309;52.126;11.616;2022-12-05T10:15:28;54.10;;;20.33;;
18364;SDS011;9309;52.126;11.616;2022-12-05T10:17:58;53.30;;;19.00;;
18364;SDS011;9309;52.126;11.616;2022-12-05T10:20:29;59.43;;;20.73;;
18364;SDS011;9309;52.126;11.616;2022-12-05T10:23:01;62.50;;;21.53;;
18364;SDS011;9309;52.126;11.616;2022-12-05T10:25:31;58.43;;;20.20;;
18364;SDS011;9309;52.126;11.616;2022-12-05T10:28:02;51.70;;;19.30;;
18364;SDS011;9309;52.126;11.616;2022-12-05T10:30:45;50.33;;;18.97;;
18364;SDS011;9309;52.126;11.616;2022-12-05T10:33:14;53.60;;;19.37;;
18364;SDS011;9309;52.126;11.616;2022-12-05T10:35:46;56.90;;;19.20;;
18364;SDS011;9309;52.126;11.616;2022-12-05T10:38:18;49.83;;;17.70;;
18364;SDS011;9309;52.126;11.616;2022-12-05T10:40:51;50.00;;;18.27;;
18364;SDS011;9309;52.126;11.616;2022-12-05T10:43:24;53.20;;;20.47;;
18364;SDS011;9309;52.126;11.616;2022-12-05T10:45:52;52.23;;;20.47;;
18364;SDS011;9309;52.126;11.616;2022-12-05T10:48:20;49.83;;;20.50;;
18364;SDS011;9309;52.126;11.616;2022-12-05T10:50:48;45.17;;;19.20;;
18364;SDS011;9309;52.126;11.616;2022-12-05T10:53:17;45.43;;;18.83;;
18364;SDS011;9309;52.126;11.616;2022-12-05T10:55:48;43.87;;;17.37;;
18364;SDS011;9309;52.126;11.616;2022-12-05T10:58:16;41.17;;;18.73;;
18364;SDS011;9309;52.126;11.616;2022-12-05T11:00:48;40.77;;;17.67;;
18364;SDS011;9309;52.126;11.616;2022-12-05T11:03:24;46.13;;;18.47;;
18364;SDS011;9309;52.126;11.616;2022-12-05T11:05:54;38.93;;;16.73;;
18364;SDS011;9309;52.126;11.616;2022-12-05T11:08:23;50.80;;;18.97;;
18364;SDS011;9309;52.126;11.616;2022-12-05T11:11:03;44.57;;;16.93;;
18364;SDS011;9309;52.126;11.616;2022-12-05T11:13:32;43.13;;;19.07;;
18364;SDS011;9309;52.126;11.616;2022-12-05T11:16:01;51.37;;;19.63;;
18364;SDS011;9309;52.126;11.616;2022-12-05T11:18:29;58.57;;;19.83;;
18364;SDS011;9309;52.126;11.616;2022-12-05T11:21:07;52.73;;;21.07;;
18364;SDS011;9309;52.126;11.616;2022-12-05T11:23:36;54.70;;;20.90;;
18364;SDS011;9309;52.126;11.616;2022-12-05T11:26:03;51.90;;;19.30;;
18364;SDS011;9309;52.126;11.616;2022-12-05T11:28:37;50.37;;;18.33;;
18364;SDS011;9309;52.126;11.616;2022-12-05T11:31:16;50.37;;;18.53;;
18364;SDS011;9309;52.126;11.616;2022-12-05T11:33:57;45.57;;;18.13;;
18364;SDS011;9309;52.126;11.616;2022-12-05T11:36:32;46.20;;;18.20;;
18364;SDS011;9309;52.126;11.616;2022-12-05T11:39:03;49.93;;;19.03;;
18364;SDS011;9309;52.126;11.616;2022-12-05T11:41:37;47.57;;;19.23;;
18364;SDS011;9309;52.126;11.616;2022-12-05T11:44:16;53.67;;;19.23;;
18364;SDS011;9309;52.126;11.616;2022-12-05T11:46:57;49.60;;;18.97;;
18364;SDS011;9309;52.126;11.616;2022-12-05T11:49:35;53.10;;;19.43;;
18364;SDS011;9309;52.126;11.616;2022-12-05T11:52:26;51.23;;;18.80;;
18364;SDS011;9309;52.126;11.616;2022-12-05T11:55:04;45.77;;;18.07;;
18364;SDS011;9309;52.126;11.616;2022-12-05T11:57:47;46.27;;;18.60;;
18364;SDS011;9309;52.126;11.616;2022-12-05T12:00:29;56.43;;;20.23;;
18364;SDS011;9309;52.126;11.616;2022-12-05T12:06:10;51.57;;;19.93;;
18364;SDS011;9309;52.126;11.616;2022-12-05T12:08:48;54.33;;;20.10;;
18364;SDS011;9309;52.126;11.616;2022-12-05T12:11:30;59.50;;;21.33;;
18364;SDS011;9309;52.126;11.616;2022-12-05T12:14:04;60.93;;;19.77;;
18364;SDS011;9309;52.126;11.616;2022-12-05T12:16:41;57.97;;;19.57;;
18364;SDS011;9309;52.126;11.616;2022-12-05T12:19:23;52.40;;;21.17;;
18364;SDS011;9309;52.126;11.616;2022-12-05T12:22:06;79.17;;;21.93;;
18364;SDS011;9309;52.126;11.616;2022-12-05T12:24:54;63.27;;;21.27;;
18364;SDS011;9309;52.126;11.616;2022-12-05T12:27:34;64.47;;;20.27;;
18364;SDS011;9309;52.126;11.616;2022-12-05T12:30:13;67.40;;;20.20;;
18364;SDS011;9309;52.126;11.616;2022-12-05T12:32:47;61.37;;;19.43;;
18364;SDS011;9309;52.126;11.616;2022-12-05T12:35:28;68.43;;;18.80;;
18364;SDS011;9309;52.126;11.616;2022-12-05T12:40:47;58.83;;;17.43;;
18364;SDS011;9309;52.126;11.616;2022-12-05T12:43:19;57.37;;;17.67;;
18364;SDS011;9309;52.126;11.616;2022-12-05T12:46:10;71.47;;;20.47;;
18364;SDS011;9309;52.126;11.616;2022-12-05T12:48:50;70.50;;;21.13;;
18364;SDS011;9309;52.126;11.616;2022-12-05T12:51:27;55.90;;;16.80;;
18364;SDS011;9309;52.126;11.616;2022-12-05T12:54:04;65.33;;;19.70;;
18364;SDS011;9309;52.126;11.616;2022-12-05T12:56:48;74.53;;;18.57;;
18364;SDS011;9309;52.126;11.616;2022-12-05T12:59:26;79.33;;;19.57;;
18364;SDS011;9309;52.126;11.616;2022-12-05T13:02:10;64.53;;;18.60;;
18364;SDS011;9309;52.126;11.616;2022-12-05T13:04:46;68.40;;;19.20;;
18364;SDS011;9309;52.126;11.616;2022-12-05T13:07:16;56.77;;;16.50;;
18364;SDS011;9309;52.126;11.616;2022-12-05T13:09:47;54.67;;;17.57;;
18364;SDS011;9309;52.126;11.616;2022-12-05T13:12:19;57.97;;;18.13;;
18364;SDS011;9309;52.126;11.616;2022-12-05T13:14:51;68.87;;;17.80;;
18364;SDS011;9309;52.126;11.616;2022-12-05T13:17:21;67.10;;;17.63;;
18364;SDS011;9309;52.126;11.616;2022-12-05T13:19:49;56.77;;;18.13;;
18364;SDS011;9309;52.126;11.616;2022-12-05T13:22:19;61.80;;;17.90;;
18364;SDS011;9309;52.126;11.616;2022-12-05T13:24:48;60.37;;;17.17;;
18364;SDS011;9309;52.126;11.616;2022-12-05T13:27:16;40.07;;;16.30;;
18364;SDS011;9309;52.126;11.616;2022-12-05T13:29:47;67.03;;;18.27;;
18364;SDS011;9309;52.126;11.616;2022-12-05T13:32:24;62.77;;;16.10;;
18364;SDS011;9309;52.126;11.616;2022-12-05T13:34:54;46.73;;;15.27;;
18364;SDS011;9309;52.126;11.616;2022-12-05T13:37:25;53.10;;;18.00;;
18364;SDS011;9309;52.126;11.616;2022-12-05T13:40:19;42.47;;;16.33;;
18364;SDS011;9309;52.126;11.616;2022-12-05T13:43:08;48.67;;;16.80;;
18364;SDS011;9309;52.126;11.616;2022-12-05T13:45:36;47.00;;;17.60;;
18364;SDS011;9309;52.126;11.616;2022-12-05T13:48:17;69.23;;;17.10;;
18364;SDS011;9309;52.126;11.616;2022-12-05T13:50:49;49.50;;;17.43;;
18364;SDS011;9309;52.126;11.616;2022-12-05T13:53:26;48.20;;;17.80;;
18364;SDS011;9309;52.126;11.616;2022-12-05T13:55:59;51.40;;;18.93;;
18364;SDS011;9309;52.126;11.616;2022-12-05T13:58:40;48.23;;;17.10;;
18364;SDS011;9309;52.126;11.616;2022-12-05T14:07:13;45.53;;;15.83;;
18364;SDS011;9309;52.126;11.616;2022-12-05T14:10:08;42.13;;;15.93;;
18364;SDS011;9309;52.126;11.616;2022-12-05T14:12:48;44.30;;;16.30;;
18364;SDS011;9309;52.126;11.616;2022-12-05T14:15:23;36.73;;;15.73;;
18364;SDS011;9309;52.126;11.616;2022-12-05T14:17:59;44.17;;;15.70;;
18364;SDS011;9309;52.126;11.616;2022-12-05T14:20:40;40.47;;;15.37;;
18364;SDS011;9309;52.126;11.616;2022-12-05T14:23:22;38.83;;;14.87;;
18364;SDS011;9309;52.126;11.616;2022-12-05T14:32:05;31.33;;;15.73;;
18364;SDS011;9309;52.126;11.616;2022-12-05T14:34:46;40.27;;;17.03;;
18364;SDS011;9309;52.126;11.616;2022-12-05T14:37:22;35.57;;;15.07;;
18364;SDS011;9309;52.126;11.616;2022-12-05T14:39:53;31.13;;;13.40;;
18364;SDS011;9309;52.126;11.616;2022-12-05T14:42:27;37.27;;;13.97;;
18364;SDS011;9309;52.126;11.616;2022-12-05T14:45:01;27.37;;;12.90;;
18364;SDS011;9309;52.126;11.616;2022-12-05T14:47:48;28.17;;;12.87;;
18364;SDS011;9309;52.126;11.616;2022-12-05T14:50:33;28.13;;;12.70;;
18364;SDS011;9309;52.126;11.616;2022-12-05T14:53:13;29.10;;;12.63;;
18364;SDS011;9309;52.126;11.616;2022-12-05T14:55:46;31.33;;;12.80;;
18364;SDS011;9309;52.126;11.616;2022-12-05T14:58:17;30.53;;;13.80;;
18364;SDS011;9309;52.126;11.616;2022-12-05T15:00:52;27.73;;;14.03;;
18364;SDS011;9309;52.126;11.616;2022-12-05T15:03:22;30.23;;;13.33;;
18364;SDS011;9309;52.126;11.616;2022-12-05T15:05:54;27.47;;;13.07;;
18364;SDS011;9309;52.126;11.616;2022-12-05T15:08:22;29.67;;;14.17;;
18364;SDS011;9309;52.126;11.616;2022-12-05T15:10:49;28.00;;;12.97;;